URMG 082300Z 29001MPS 7000 OVC015 01/M00 Q1028 R26/190060 TEMPO 0300 FG OVC002 RMK QFE756/1008
QNH:(hPa/inHg/mmHg)1028 / 30.36 / 771
QFE:(hPa/inHg/mmHg)1008 / 29.76 / 756
Temperature1
Dew Point-0
Visibility0300
WeatherFog
Cloud CoverOVC (1500);
OVC (200);
Transition Height1900 m./6800 ft.
Transition LevelFL80
SQUAWK